Time;durP1;ratioP1;P1;durP2;ratioP2;P2;SDS_P1;SDS_P2;PMS_P1;PMS_P2;Temp;Humidity;BMP_temperature;BMP_pressure;BME280_temperature;BME280_humidity;BME280_pressure;Samples;Min_cycle;Max_cycle;Signal;HPM_P1;HPM_P2
2020/12/12 00:01:56;;;;;;;41.43;22.60;;;4.60;99.90;;;;;;5009377;28;20654;-66
2020/12/12 00:04:41;;;;;;;36.83;23.07;;;4.60;99.90;;;;;;4992571;28;20757;-66
2020/12/12 00:07:25;;;;;;;40.47;23.07;;;4.60;99.90;;;;;;5004311;28;20689;-66
2020/12/12 00:10:10;;;;;;;37.00;23.13;;;4.50;99.90;;;;;;5012924;28;20718;-66
2020/12/12 00:12:55;;;;;;;42.50;23.73;;;4.50;99.90;;;;;;5022435;28;20759;-67
2020/12/12 00:15:39;;;;;;;45.13;23.83;;;4.50;99.90;;;;;;5010039;28;20877;-67
2020/12/12 00:18:24;;;;;;;38.57;22.60;;;4.40;99.90;;;;;;5008183;28;20590;-66
2020/12/12 00:21:10;;;;;;;39.77;23.03;;;4.40;99.90;;;;;;5008307;28;21141;-66
2020/12/12 00:23:54;;;;;;;40.30;22.67;;;4.40;99.90;;;;;;5010828;28;20987;-67
2020/12/12 00:26:39;;;;;;;44.20;24.13;;;4.40;99.90;;;;;;4998315;28;20629;-67
2020/12/12 00:29:24;;;;;;;42.47;23.90;;;4.40;99.90;;;;;;5012415;28;20622;-67
2020/12/12 00:32:09;;;;;;;44.17;24.23;;;4.40;99.90;;;;;;5022590;28;20642;-67
2020/12/12 00:34:54;;;;;;;45.20;24.00;;;4.40;99.90;;;;;;5011474;28;20654;-66
2020/12/12 00:37:39;;;;;;;42.77;23.40;;;4.40;99.90;;;;;;5009332;28;20608;-66
2020/12/12 00:40:24;;;;;;;44.27;24.60;;;4.40;99.90;;;;;;5010173;28;20642;-66
2020/12/12 00:43:08;;;;;;;42.83;24.03;;;4.40;99.90;;;;;;5011670;28;20681;-66
2020/12/12 00:45:56;;;;;;;46.07;24.47;;;4.40;99.90;;;;;;5009875;28;20668;-66
2020/12/12 00:48:40;;;;;;;45.33;25.13;;;4.40;99.90;;;;;;4993107;28;20969;-67
2020/12/12 00:51:25;;;;;;;42.57;24.07;;;4.30;99.90;;;;;;5006630;28;20693;-68
2020/12/12 00:54:10;;;;;;;40.40;24.30;;;4.30;99.90;;;;;;5006374;28;20642;-66
2020/12/12 00:56:54;;;;;;;42.67;23.90;;;4.30;99.90;;;;;;5008046;28;20610;-67
2020/12/12 00:59:39;;;;;;;43.40;23.67;;;4.30;99.90;;;;;;5009748;28;20730;-66
2020/12/12 01:02:23;;;;;;;43.50;23.90;;;4.30;99.90;;;;;;5006730;28;20692;-66
2020/12/12 01:05:10;;;;;;;45.67;23.10;;;4.30;99.90;;;;;;5023861;28;20833;-68
2020/12/12 01:07:55;;;;;;;41.80;23.10;;;4.30;99.90;;;;;;5001841;28;20599;-66
2020/12/12 01:10:40;;;;;;;42.83;24.10;;;4.30;99.90;;;;;;4998618;28;20630;-67
2020/12/12 01:13:24;;;;;;;40.97;24.07;;;4.30;99.90;;;;;;4999320;28;20630;-66
2020/12/12 01:16:12;;;;;;;46.77;25.20;;;4.20;99.90;;;;;;5001496;28;20669;-67
2020/12/12 01:18:57;;;;;;;43.70;23.33;;;4.20;99.90;;;;;;4995496;28;20591;-66
2020/12/12 01:21:42;;;;;;;44.67;23.60;;;4.20;99.90;;;;;;5008669;28;20626;-67
2020/12/12 01:24:26;;;;;;;43.20;24.30;;;4.10;99.90;;;;;;5012879;28;20689;-67
2020/12/12 01:27:13;;;;;;;41.77;23.60;;;4.20;99.90;;;;;;4999814;28;20599;-67
2020/12/12 01:29:57;;;;;;;43.50;24.80;;;4.10;99.90;;;;;;5024089;28;20777;-68
2020/12/12 01:32:42;;;;;;;39.90;23.70;;;4.10;99.90;;;;;;5008833;28;20643;-66
2020/12/12 01:35:26;;;;;;;43.50;24.97;;;4.10;99.90;;;;;;5010058;28;20805;-67
2020/12/12 01:38:11;;;;;;;42.40;23.80;;;4.10;99.90;;;;;;4999287;28;20586;-66
2020/12/12 01:40:56;;;;;;;41.97;24.50;;;4.20;99.90;;;;;;5007462;28;20652;-67
2020/12/12 01:43:49;;;;;;;43.60;25.23;;;4.30;99.90;;;;;;5002487;28;20720;-66
2020/12/12 01:46:34;;;;;;;39.43;23.13;;;4.20;99.90;;;;;;5007502;28;20615;-67
2020/12/12 01:49:22;;;;;;;44.57;23.93;;;4.20;99.90;;;;;;5004929;28;20742;-66
2020/12/12 01:52:07;;;;;;;42.80;25.07;;;4.10;99.90;;;;;;5018423;28;20662;-67
2020/12/12 01:54:52;;;;;;;40.00;23.90;;;4.20;99.90;;;;;;5013672;28;21037;-67
2020/12/12 01:57:41;;;;;;;42.63;23.50;;;4.10;99.90;;;;;;5013320;28;21221;-67
2020/12/12 02:00:28;;;;;;;42.23;23.87;;;4.20;99.90;;;;;;5022799;28;20699;-66
2020/12/12 02:03:13;;;;;;;43.20;24.40;;;4.20;99.90;;;;;;4996261;28;20962;-67
2020/12/12 02:06:01;;;;;;;39.03;23.47;;;4.10;99.90;;;;;;5009074;28;20663;-68
2020/12/12 02:08:50;;;;;;;44.17;23.80;;;4.10;99.90;;;;;;5013043;28;21130;-66
2020/12/12 02:11:36;;;;;;;39.67;23.70;;;4.10;99.90;;;;;;5007906;28;20759;-67
2020/12/12 02:14:21;;;;;;;45.50;24.50;;;4.10;99.90;;;;;;5027291;28;20665;-66
2020/12/12 02:17:07;;;;;;;40.47;24.20;;;4.10;99.90;;;;;;5004908;28;21017;-66
2020/12/12 02:19:52;;;;;;;36.50;22.90;;;4.10;99.90;;;;;;4998323;28;20742;-66
2020/12/12 02:22:36;;;;;;;39.67;23.53;;;4.20;99.90;;;;;;5005375;28;20649;-66
2020/12/12 02:25:20;;;;;;;40.30;25.60;;;4.20;99.90;;;;;;4997390;28;20654;-66
2020/12/12 02:28:11;;;;;;;40.37;23.07;;;4.20;99.90;;;;;;5004732;28;20661;-67
2020/12/12 02:30:55;;;;;;;42.40;24.47;;;4.20;99.90;;;;;;5003833;28;20753;-67
2020/12/12 02:33:40;;;;;;;39.33;24.00;;;4.20;99.90;;;;;;5028026;28;21360;-67
2020/12/12 02:36:25;;;;;;;39.77;23.60;;;4.10;99.90;;;;;;5034641;23;20874;-67
2020/12/12 02:39:12;;;;;;;42.13;24.23;;;4.10;99.90;;;;;;5049787;28;20598;-67
2020/12/12 02:42:01;;;;;;;39.10;23.17;;;4.20;99.90;;;;;;5044168;28;20626;-68
2020/12/12 02:44:50;;;;;;;43.07;24.83;;;4.20;99.90;;;;;;5047818;28;20589;-69
2020/12/12 02:47:37;;;;;;;44.67;25.47;;;4.20;99.90;;;;;;5030521;28;20629;-68
2020/12/12 02:50:26;;;;;;;44.70;25.50;;;4.20;99.90;;;;;;5055246;28;20719;-67
2020/12/12 02:53:11;;;;;;;37.00;21.93;;;4.20;99.90;;;;;;5048257;28;20653;-66
2020/12/12 02:55:55;;;;;;;39.80;23.40;;;4.20;99.90;;;;;;5040912;28;20653;-67
2020/12/12 02:58:40;;;;;;;38.80;23.40;;;4.20;99.90;;;;;;5057357;28;20933;-69
2020/12/12 03:01:25;;;;;;;44.20;24.40;;;4.20;99.90;;;;;;5047249;28;20749;-69
2020/12/12 03:04:10;;;;;;;40.17;23.43;;;4.20;99.90;;;;;;5045904;28;21006;-66
2020/12/12 03:06:54;;;;;;;37.43;23.90;;;4.10;99.90;;;;;;5059191;28;20665;-66
2020/12/12 03:09:39;;;;;;;44.30;27.07;;;4.10;99.90;;;;;;5051820;28;20722;-66
2020/12/12 03:12:24;;;;;;;44.43;25.83;;;4.00;99.90;;;;;;5057473;28;20666;-66
2020/12/12 03:15:10;;;;;;;36.97;23.60;;;4.10;99.90;;;;;;5054213;28;20641;-65
2020/12/12 03:17:55;;;;;;;37.10;23.60;;;4.10;99.90;;;;;;5047140;28;20677;-66
2020/12/12 03:20:39;;;;;;;41.13;23.87;;;4.00;99.90;;;;;;5054853;28;20987;-68
2020/12/12 03:23:24;;;;;;;40.70;24.83;;;4.00;99.90;;;;;;5040636;28;20589;-67
2020/12/12 03:26:08;;;;;;;39.50;23.90;;;4.00;99.90;;;;;;5049843;28;21155;-67
2020/12/12 03:28:53;;;;;;;42.90;24.17;;;4.00;99.90;;;;;;5049188;28;21031;-67
2020/12/12 03:31:37;;;;;;;45.30;24.47;;;4.00;99.90;;;;;;5031357;28;20731;-65
2020/12/12 03:34:22;;;;;;;43.77;24.47;;;4.00;99.90;;;;;;5044511;28;20683;-67
2020/12/12 03:37:07;;;;;;;46.50;24.23;;;4.10;99.90;;;;;;5044228;28;21058;-68
2020/12/12 03:39:51;;;;;;;42.93;25.07;;;4.00;99.90;;;;;;5043758;28;21204;-69
2020/12/12 03:42:36;;;;;;;42.67;24.63;;;4.00;99.90;;;;;;5048075;28;20644;-69
2020/12/12 03:45:24;;;;;;;44.67;24.80;;;4.00;99.90;;;;;;5040645;28;20976;-67
2020/12/12 03:48:08;;;;;;;41.93;24.30;;;4.10;99.90;;;;;;5046926;28;20625;-66
2020/12/12 03:50:53;;;;;;;40.27;23.50;;;4.10;99.90;;;;;;5033838;28;21314;-67
2020/12/12 03:53:38;;;;;;;43.73;24.43;;;4.10;99.90;;;;;;5057505;28;20637;-66
2020/12/12 03:56:22;;;;;;;43.57;25.10;;;4.10;99.90;;;;;;5047036;28;20677;-69
2020/12/12 03:59:06;;;;;;;40.47;23.33;;;4.00;99.90;;;;;;5047486;28;20711;-69
2020/12/12 04:01:53;;;;;;;39.63;23.47;;;4.10;99.90;;;;;;5036010;28;21145;-69
2020/12/12 04:04:37;;;;;;;41.37;23.70;;;4.00;99.90;;;;;;5045316;28;20625;-67
2020/12/12 04:07:24;;;;;;;41.83;23.63;;;4.00;99.90;;;;;;5048090;28;20971;-67
2020/12/12 04:10:09;;;;;;;44.73;23.63;;;4.00;99.90;;;;;;5045935;28;20688;-67
2020/12/12 04:12:53;;;;;;;40.43;24.47;;;3.90;99.90;;;;;;5044606;28;20650;-67
2020/12/12 04:15:38;;;;;;;43.70;24.00;;;3.90;99.90;;;;;;5049439;28;20648;-67
2020/12/12 04:18:22;;;;;;;43.23;23.70;;;3.90;99.90;;;;;;5037996;28;20660;-66
2020/12/12 04:21:07;;;;;;;41.67;23.93;;;3.80;99.90;;;;;;5043017;28;20622;-66
2020/12/12 04:23:52;;;;;;;38.93;23.10;;;3.80;99.90;;;;;;5048057;28;20633;-69
2020/12/12 04:26:36;;;;;;;41.30;23.77;;;3.90;99.90;;;;;;5044052;28;20642;-67
2020/12/12 04:29:21;;;;;;;39.43;22.67;;;3.90;99.90;;;;;;5058171;28;20961;-66
2020/12/12 04:32:09;;;;;;;38.80;23.10;;;3.90;99.90;;;;;;5035241;28;20639;-67
2020/12/12 04:34:54;;;;;;;44.20;24.30;;;3.90;99.90;;;;;;5028269;28;22685;-67
2020/12/12 04:37:38;;;;;;;41.10;24.13;;;3.90;99.90;;;;;;5039426;28;20684;-67
2020/12/12 04:40:23;;;;;;;46.30;26.00;;;3.90;99.90;;;;;;5040756;28;20590;-66
2020/12/12 04:43:08;;;;;;;40.13;24.53;;;3.90;99.90;;;;;;5058303;28;20990;-67
2020/12/12 04:45:53;;;;;;;38.73;23.27;;;3.90;99.90;;;;;;5055665;28;20677;-66
2020/12/12 04:48:39;;;;;;;39.40;23.33;;;3.90;99.90;;;;;;5036581;28;20582;-67
2020/12/12 04:51:28;;;;;;;43.60;24.50;;;4.00;99.90;;;;;;5056568;28;20667;-67
2020/12/12 04:54:19;;;;;;;45.23;25.40;;;3.90;99.90;;;;;;5026823;28;21158;-67
2020/12/12 04:57:04;;;;;;;41.17;23.03;;;3.90;99.90;;;;;;5044239;28;20658;-67
2020/12/12 04:59:55;;;;;;;43.90;24.10;;;3.90;99.90;;;;;;5041722;28;20633;-67
2020/12/12 05:02:42;;;;;;;39.10;23.00;;;3.90;99.90;;;;;;5037114;28;20688;-66
2020/12/12 05:05:27;;;;;;;41.77;24.00;;;3.90;99.90;;;;;;5045866;28;20652;-67
2020/12/12 05:08:13;;;;;;;40.07;23.03;;;4.00;99.90;;;;;;5043395;28;20728;-66
2020/12/12 05:11:02;;;;;;;41.67;24.40;;;3.90;99.90;;;;;;5041493;28;20665;-67
2020/12/12 05:13:47;;;;;;;44.00;23.07;;;3.90;99.90;;;;;;5042729;28;20669;-67
2020/12/12 05:16:39;;;;;;;44.30;24.60;;;3.90;99.90;;;;;;5045264;28;20673;-66
2020/12/12 05:19:24;;;;;;;44.27;23.60;;;3.80;99.90;;;;;;5032178;28;20590;-67
2020/12/12 05:22:09;;;;;;;43.87;26.23;;;3.90;99.90;;;;;;5039644;28;21118;-67
2020/12/12 05:24:54;;;;;;;44.03;23.80;;;3.90;99.90;;;;;;5055916;28;20703;-66
2020/12/12 05:27:40;;;;;;;44.57;25.60;;;3.90;99.90;;;;;;5046249;28;21230;-67
2020/12/12 05:30:25;;;;;;;43.00;23.90;;;3.90;99.90;;;;;;5043931;28;20613;-66
2020/12/12 05:33:12;;;;;;;44.10;25.57;;;3.90;99.90;;;;;;5036255;28;20635;-67
2020/12/12 05:35:57;;;;;;;47.10;24.90;;;3.80;99.90;;;;;;5043414;28;20639;-67
2020/12/12 05:38:41;;;;;;;45.37;24.50;;;3.90;99.90;;;;;;5048841;28;20922;-67
2020/12/12 05:41:29;;;;;;;44.80;27.53;;;3.90;99.90;;;;;;5040781;28;20708;-66
2020/12/12 05:44:16;;;;;;;45.30;25.17;;;3.90;99.90;;;;;;5046783;28;21096;-67
2020/12/12 05:47:02;;;;;;;45.83;24.83;;;4.00;99.90;;;;;;5048290;28;21199;-67
2020/12/12 05:49:54;;;;;;;41.00;24.23;;;4.00;99.90;;;;;;5050771;28;20610;-67
2020/12/12 05:52:41;;;;;;;51.23;26.00;;;3.90;99.90;;;;;;5043426;28;20669;-67
2020/12/12 05:55:30;;;;;;;44.10;23.67;;;3.90;99.90;;;;;;5044670;28;20734;-67
2020/12/12 05:58:15;;;;;;;43.57;25.33;;;4.00;99.90;;;;;;5049074;28;20719;-69
2020/12/12 06:01:02;;;;;;;42.87;24.93;;;4.00;99.90;;;;;;5040384;28;20645;-68
2020/12/12 06:04:18;;;;;;;46.57;25.70;;;4.00;99.90;;;;;;5048653;28;20756;-68
2020/12/12 06:07:08;;;;;;;44.77;24.23;;;4.00;99.90;;;;;;5047411;28;21227;-67
2020/12/12 06:10:02;;;;;;;46.20;24.80;;;4.00;99.90;;;;;;5045396;28;20648;-68
2020/12/12 06:12:48;;;;;;;44.93;25.20;;;4.00;99.90;;;;;;5046013;28;21323;-69
2020/12/12 06:15:35;;;;;;;46.90;25.20;;;4.00;99.90;;;;;;5046565;28;20783;-69
2020/12/12 06:18:45;;;;;;;47.07;23.20;;;4.00;99.90;;;;;;5042304;28;20671;-68
2020/12/12 06:21:29;;;;;;;42.50;24.93;;;4.00;99.90;;;;;;5059454;28;21291;-68
2020/12/12 06:24:16;;;;;;;42.73;25.10;;;4.00;99.90;;;;;;5044495;28;20720;-69
2020/12/12 06:27:11;;;;;;;41.97;24.40;;;4.00;99.90;;;;;;5049007;28;20772;-68
2020/12/12 06:29:56;;;;;;;41.43;24.27;;;4.00;99.90;;;;;;5042345;28;20701;-69
2020/12/12 06:32:43;;;;;;;48.37;26.10;;;4.10;99.90;;;;;;5044632;28;20722;-68
2020/12/12 06:35:35;;;;;;;45.47;23.17;;;4.00;99.90;;;;;;5044725;28;20668;-68
2020/12/12 06:38:25;;;;;;;44.43;24.20;;;4.00;99.90;;;;;;5045387;28;20688;-69
2020/12/12 06:41:09;;;;;;;39.37;23.87;;;4.00;99.90;;;;;;5035653;28;20657;-68
2020/12/12 06:43:54;;;;;;;49.67;24.60;;;4.00;99.90;;;;;;5047342;28;20620;-69
2020/12/12 06:46:52;;;;;;;46.80;26.13;;;4.00;99.90;;;;;;5035106;28;20661;-71
2020/12/12 06:50:04;;;;;;;45.70;24.20;;;4.00;99.90;;;;;;5043853;28;20651;-68
2020/12/12 06:52:53;;;;;;;47.10;25.20;;;4.00;99.90;;;;;;5043770;28;20649;-67
2020/12/12 06:55:38;;;;;;;44.40;24.63;;;4.00;99.90;;;;;;5028126;28;20988;-68
2020/12/12 06:58:25;;;;;;;47.40;25.37;;;4.00;99.90;;;;;;5055431;28;20589;-68
2020/12/12 07:01:30;;;;;;;42.30;23.70;;;3.90;99.90;;;;;;5035182;28;20811;-66
2020/12/12 07:04:32;;;;;;;47.07;24.00;;;3.90;99.90;;;;;;5023297;28;20706;-69
2020/12/12 07:07:17;;;;;;;44.70;24.97;;;4.00;99.90;;;;;;5029056;28;21082;-69
2020/12/12 07:10:03;;;;;;;50.97;26.40;;;4.00;99.90;;;;;;5041429;28;21047;-65
2020/12/12 07:12:48;;;;;;;53.50;28.57;;;4.00;99.90;;;;;;5051283;28;20660;-66
2020/12/12 07:15:35;;;;;;;47.27;26.37;;;4.00;99.90;;;;;;5040533;28;21175;-66
2020/12/12 07:18:21;;;;;;;43.13;25.70;;;4.10;99.90;;;;;;5038686;28;21158;-66
2020/12/12 07:21:10;;;;;;;46.93;25.27;;;4.10;99.90;;;;;;5040238;28;20666;-66
2020/12/12 07:23:54;;;;;;;48.17;27.70;;;4.10;99.90;;;;;;5052006;28;20595;-66
2020/12/12 07:26:39;;;;;;;45.07;25.00;;;4.10;99.90;;;;;;5040122;28;20755;-66
2020/12/12 07:29:23;;;;;;;43.67;24.70;;;4.10;99.90;;;;;;5043824;28;21035;-67
2020/12/12 07:32:08;;;;;;;48.87;26.30;;;4.10;99.90;;;;;;5042591;28;20662;-67
2020/12/12 07:34:59;;;;;;;44.20;25.63;;;4.10;99.90;;;;;;5036770;28;20828;-67
2020/12/12 07:37:44;;;;;;;44.50;25.57;;;4.10;99.90;;;;;;5042262;28;20614;-67
2020/12/12 07:40:33;;;;;;;45.90;25.90;;;4.00;99.90;;;;;;5047814;28;20589;-67
2020/12/12 07:43:18;;;;;;;47.63;26.30;;;4.00;99.90;;;;;;5055885;28;20725;-68
2020/12/12 07:46:08;;;;;;;42.60;25.07;;;4.00;99.90;;;;;;5051200;28;20969;-67
2020/12/12 07:49:00;;;;;;;47.80;25.90;;;4.00;99.90;;;;;;5042835;28;21255;-67
2020/12/12 07:51:56;;;;;;;48.80;25.93;;;4.00;99.90;;;;;;5034275;28;20665;-66
2020/12/12 07:54:47;;;;;;;41.67;23.53;;;4.00;99.90;;;;;;5036242;28;20593;-64
2020/12/12 07:57:35;;;;;;;44.13;26.07;;;4.00;99.90;;;;;;5043928;28;20662;-66
2020/12/12 08:00:19;;;;;;;49.83;25.77;;;4.00;99.90;;;;;;5045261;28;20684;-66
2020/12/12 08:03:04;;;;;;;42.90;25.90;;;4.10;99.90;;;;;;5039136;28;20657;-66
2020/12/12 08:05:48;;;;;;;46.77;26.23;;;4.20;99.90;;;;;;5044742;28;20641;-66
2020/12/12 08:08:33;;;;;;;45.80;25.63;;;4.20;99.90;;;;;;5037315;28;21080;-66
2020/12/12 08:11:18;;;;;;;49.20;27.90;;;4.20;99.90;;;;;;5042290;28;20760;-66
2020/12/12 08:14:05;;;;;;;50.43;26.63;;;4.20;99.90;;;;;;5038204;28;20614;-66
2020/12/12 08:16:54;;;;;;;50.40;26.00;;;4.20;99.90;;;;;;5043240;28;20649;-66
2020/12/12 08:19:47;;;;;;;45.67;25.50;;;4.30;99.90;;;;;;5031865;28;20966;-65
2020/12/12 08:22:36;;;;;;;52.83;28.10;;;4.30;99.90;;;;;;5037227;28;20665;-66
2020/12/12 08:25:20;;;;;;;51.60;26.03;;;4.30;99.90;;;;;;5043496;28;20894;-69
2020/12/12 08:28:08;;;;;;;49.10;27.63;;;4.30;99.90;;;;;;5041731;28;20633;-70
2020/12/12 08:30:52;;;;;;;48.00;27.20;;;4.20;99.90;;;;;;5039944;28;21234;-69
2020/12/12 08:33:37;;;;;;;47.63;26.17;;;4.30;99.90;;;;;;5040062;28;20621;-66
2020/12/12 08:36:29;;;;;;;48.37;28.27;;;4.30;99.90;;;;;;5056211;23;21271;-62
2020/12/12 08:39:14;;;;;;;48.63;27.00;;;4.30;99.90;;;;;;5027186;28;20594;-65
2020/12/12 08:41:58;;;;;;;50.53;27.40;;;4.30;99.90;;;;;;5021424;28;20763;-70
2020/12/12 08:44:43;;;;;;;49.53;26.50;;;4.30;99.90;;;;;;5015921;28;21082;-70
2020/12/12 08:47:27;;;;;;;47.97;26.30;;;4.50;99.90;;;;;;5021885;28;20890;-72
2020/12/12 08:50:12;;;;;;;51.30;28.17;;;4.40;99.90;;;;;;5009904;28;20622;-72
2020/12/12 08:52:56;;;;;;;46.13;26.50;;;4.50;99.90;;;;;;5005249;28;20737;-71
2020/12/12 08:55:41;;;;;;;49.03;27.50;;;4.50;99.90;;;;;;5007764;28;20646;-71
2020/12/12 08:58:39;;;;;;;51.33;27.00;;;4.40;99.90;;;;;;5005316;28;21443;-71
2020/12/12 09:01:35;;;;;;;47.27;26.53;;;4.40;99.90;;;;;;5008360;28;20630;-71
2020/12/12 09:04:20;;;;;;;51.77;26.83;;;4.50;99.90;;;;;;5013795;28;20610;-71
2020/12/12 09:07:05;;;;;;;46.70;26.97;;;4.50;99.90;;;;;;5010879;28;20653;-71
2020/12/12 09:09:50;;;;;;;47.97;27.43;;;4.50;99.90;;;;;;5023397;28;20943;-72
2020/12/12 09:12:49;;;;;;;44.70;26.30;;;4.50;99.90;;;;;;5009567;28;21279;-70
2020/12/12 09:15:34;;;;;;;51.73;27.60;;;4.50;99.90;;;;;;5016936;28;21260;-70
2020/12/12 09:18:18;;;;;;;46.13;27.57;;;4.40;99.90;;;;;;5009527;28;20623;-71
2020/12/12 09:21:03;;;;;;;53.57;29.17;;;4.40;99.90;;;;;;5004432;28;20744;-72
2020/12/12 09:23:48;;;;;;;50.67;28.87;;;4.40;99.90;;;;;;5006635;28;20588;-64
2020/12/12 09:26:32;;;;;;;49.90;29.07;;;4.40;99.90;;;;;;5011382;28;20654;-64
2020/12/12 09:29:16;;;;;;;50.50;27.30;;;4.40;99.90;;;;;;5021430;28;20595;-63
2020/12/12 09:32:01;;;;;;;51.27;27.53;;;4.50;99.90;;;;;;5007462;28;20650;-64
2020/12/12 09:34:45;;;;;;;49.87;27.97;;;4.50;99.90;;;;;;5011836;28;21240;-64
2020/12/12 09:37:29;;;;;;;50.20;27.87;;;4.50;99.90;;;;;;5012975;28;20649;-64
2020/12/12 09:40:14;;;;;;;47.97;27.17;;;4.50;99.90;;;;;;5012060;28;20809;-65
2020/12/12 09:42:58;;;;;;;44.77;27.00;;;4.40;99.90;;;;;;5024173;28;20626;-64
2020/12/12 09:45:44;;;;;;;53.03;27.97;;;4.50;99.90;;;;;;5012615;28;20654;-65
2020/12/12 09:48:29;;;;;;;47.07;26.60;;;4.50;99.90;;;;;;5017233;28;20602;-65
2020/12/12 09:51:15;;;;;;;44.63;25.37;;;4.50;99.90;;;;;;5015715;28;20646;-64
2020/12/12 09:54:00;;;;;;;42.47;26.57;;;4.50;99.90;;;;;;5016622;28;20613;-64
2020/12/12 09:56:48;;;;;;;42.90;26.60;;;4.60;99.90;;;;;;5016478;28;20665;-64
2020/12/12 09:59:32;;;;;;;45.13;27.80;;;4.70;99.90;;;;;;5016876;28;21169;-65
2020/12/12 10:02:16;;;;;;;45.33;27.13;;;4.70;99.90;;;;;;5012903;28;20642;-65
2020/12/12 10:05:01;;;;;;;46.33;27.93;;;4.70;99.90;;;;;;5014040;28;20590;-64
2020/12/12 10:07:45;;;;;;;44.00;24.53;;;4.70;99.90;;;;;;5015111;28;20622;-64
2020/12/12 10:10:31;;;;;;;48.07;27.40;;;4.70;99.90;;;;;;5012357;28;21220;-65
2020/12/12 10:13:16;;;;;;;45.30;27.50;;;4.70;99.90;;;;;;5020075;28;21245;-64
2020/12/12 10:16:01;;;;;;;47.97;27.60;;;4.70;99.90;;;;;;5008669;28;20729;-64
2020/12/12 10:18:46;;;;;;;45.00;27.33;;;4.80;99.90;;;;;;5023797;28;20999;-64
2020/12/12 10:21:31;;;;;;;47.73;28.43;;;4.80;99.90;;;;;;5010883;28;20635;-65
2020/12/12 10:24:15;;;;;;;42.83;25.70;;;4.80;99.90;;;;;;5004717;28;20650;-63
2020/12/12 10:26:59;;;;;;;43.43;26.10;;;4.80;99.90;;;;;;5014406;28;20657;-64
2020/12/12 10:29:44;;;;;;;44.67;26.03;;;4.80;99.90;;;;;;5019051;28;20579;-64
2020/12/12 10:32:31;;;;;;;41.13;25.83;;;4.80;99.90;;;;;;4997684;28;20654;-64
2020/12/12 10:35:18;;;;;;;39.77;25.67;;;4.90;99.90;;;;;;5022467;28;20610;-64
2020/12/12 10:38:03;;;;;;;48.37;27.97;;;4.90;99.90;;;;;;5010488;28;20599;-65
2020/12/12 10:41:01;;;;;;;45.60;26.10;;;5.00;99.90;;;;;;5014573;28;20761;-64
2020/12/12 10:43:48;;;;;;;44.10;26.80;;;4.90;99.90;;;;;;5036284;28;21164;-64
2020/12/12 10:46:33;;;;;;;45.10;26.70;;;4.90;99.90;;;;;;5016282;28;20756;-65
2020/12/12 10:49:18;;;;;;;44.70;26.77;;;4.90;99.90;;;;;;5013383;28;20634;-64
2020/12/12 10:52:02;;;;;;;41.90;25.87;;;4.90;99.90;;;;;;5004424;28;21125;-64
2020/12/12 10:54:48;;;;;;;42.77;27.63;;;4.90;99.90;;;;;;5013227;28;21185;-64
2020/12/12 10:57:33;;;;;;;42.10;24.83;;;4.80;99.90;;;;;;5008932;28;20646;-64
2020/12/12 11:00:24;;;;;;;41.57;26.03;;;4.80;99.90;;;;;;5002854;28;20623;-64
2020/12/12 11:03:08;;;;;;;42.40;26.50;;;4.80;99.90;;;;;;5008076;28;21060;-64
2020/12/12 11:05:53;;;;;;;43.00;25.67;;;4.80;99.90;;;;;;5010500;28;20667;-64
2020/12/12 11:08:37;;;;;;;46.63;25.33;;;4.80;99.90;;;;;;5012343;28;20623;-65
2020/12/12 11:11:22;;;;;;;43.07;25.90;;;4.80;99.90;;;;;;5007496;28;20638;-62
2020/12/12 11:14:07;;;;;;;39.23;25.07;;;4.80;99.90;;;;;;5005707;28;21500;-62
2020/12/12 11:16:52;;;;;;;43.10;25.07;;;4.80;99.90;;;;;;5026473;28;20741;-63
2020/12/12 11:19:36;;;;;;;40.63;26.10;;;4.80;99.90;;;;;;5014244;28;20701;-62
2020/12/12 11:22:20;;;;;;;45.43;25.30;;;4.80;99.90;;;;;;5007610;28;20642;-62
2020/12/12 11:25:06;;;;;;;39.53;24.97;;;4.80;99.90;;;;;;5017951;28;20594;-63
2020/12/12 11:27:53;;;;;;;42.90;26.40;;;4.80;99.90;;;;;;5015232;28;20634;-63
2020/12/12 11:30:38;;;;;;;42.50;26.60;;;4.80;99.90;;;;;;5020568;28;20673;-63
2020/12/12 11:33:23;;;;;;;39.53;24.30;;;4.90;99.90;;;;;;5006377;28;21226;-63
2020/12/12 11:47:44;;;;;;;42.27;24.80;;;5.00;99.90;;;;;;5028544;28;20693;-64
2020/12/12 11:50:29;;;;;;;43.47;24.50;;;5.10;99.90;;;;;;5013873;28;20590;-63
2020/12/12 11:53:14;;;;;;;40.10;24.50;;;5.10;99.90;;;;;;5023128;28;20701;-62
2020/12/12 11:55:58;;;;;;;41.47;24.50;;;5.10;99.90;;;;;;5013152;28;20658;-64
2020/12/12 11:58:43;;;;;;;44.17;25.80;;;5.10;99.90;;;;;;5012053;28;20638;-65
2020/12/12 12:01:28;;;;;;;42.53;25.73;;;5.20;99.90;;;;;;5002157;28;20626;-65
2020/12/12 12:04:13;;;;;;;44.27;26.20;;;5.20;99.90;;;;;;5011288;28;20833;-64
2020/12/12 12:06:58;;;;;;;35.47;24.00;;;5.20;99.90;;;;;;5009008;28;21208;-64
2020/12/12 12:09:46;;;;;;;39.70;25.53;;;5.20;99.90;;;;;;5008795;28;20615;-65
2020/12/12 12:12:30;;;;;;;37.80;24.43;;;5.30;99.90;;;;;;5011977;28;21166;-65
2020/12/12 12:15:15;;;;;;;42.23;25.33;;;5.30;99.90;;;;;;5006407;28;20614;-65
2020/12/12 12:17:59;;;;;;;37.97;24.30;;;5.30;99.90;;;;;;4999609;28;20615;-65
2020/12/12 12:20:44;;;;;;;37.07;24.23;;;5.30;99.90;;;;;;5003167;28;21213;-73
2020/12/12 12:23:28;;;;;;;39.83;24.17;;;5.30;99.90;;;;;;5004088;28;20689;-64
2020/12/12 12:26:14;;;;;;;44.07;24.97;;;5.20;99.90;;;;;;5006690;28;20704;-64
2020/12/12 12:28:58;;;;;;;41.30;24.97;;;5.20;99.90;;;;;;5011943;28;20617;-63
2020/12/12 12:31:45;;;;;;;37.33;23.77;;;5.30;99.90;;;;;;5009752;28;20643;-63
2020/12/12 12:34:29;;;;;;;38.17;24.53;;;5.30;99.90;;;;;;5011497;28;20742;-63
2020/12/12 12:37:14;;;;;;;38.83;25.40;;;5.30;99.90;;;;;;5011687;28;20655;-63
2020/12/12 12:39:58;;;;;;;38.37;24.90;;;5.20;99.90;;;;;;5015053;28;20645;-62
2020/12/12 12:42:43;;;;;;;40.00;25.20;;;5.30;99.90;;;;;;5011088;28;20694;-62
2020/12/12 12:45:27;;;;;;;39.17;24.13;;;5.30;99.90;;;;;;5030082;28;20599;-62
2020/12/12 12:48:12;;;;;;;37.97;24.53;;;5.30;99.90;;;;;;5013734;28;20603;-63
2020/12/12 12:50:56;;;;;;;40.20;24.40;;;5.30;99.90;;;;;;5010715;28;20717;-62
2020/12/12 12:53:41;;;;;;;37.33;23.90;;;5.20;99.90;;;;;;5011175;28;20662;-63
2020/12/12 12:56:26;;;;;;;41.40;24.10;;;5.30;99.90;;;;;;5011646;28;20685;-63
2020/12/12 12:59:11;;;;;;;36.93;22.70;;;5.30;99.90;;;;;;5005346;28;21193;-63
2020/12/12 13:01:55;;;;;;;36.50;21.97;;;5.30;99.90;;;;;;5012502;28;20647;-63
2020/12/12 13:04:40;;;;;;;35.67;23.60;;;5.30;99.90;;;;;;5014276;28;20621;-63
2020/12/12 13:07:24;;;;;;;36.67;23.87;;;5.20;99.90;;;;;;5009597;28;20647;-63
2020/12/12 13:10:09;;;;;;;33.90;22.90;;;5.30;99.90;;;;;;5000491;28;20614;-67
2020/12/12 13:12:53;;;;;;;36.40;23.97;;;5.20;99.90;;;;;;5004763;28;20889;-66
2020/12/12 13:15:38;;;;;;;36.60;24.90;;;5.20;99.90;;;;;;5004050;28;20650;-64
2020/12/12 13:18:28;;;;;;;39.33;23.30;;;5.20;99.90;;;;;;5016407;28;21323;-64
2020/12/12 13:21:27;;;;;;;34.77;22.40;;;5.20;99.90;;;;;;5007782;28;20635;-63
2020/12/12 13:24:12;;;;;;;39.60;24.20;;;5.20;99.90;;;;;;5018021;28;20610;-64
2020/12/12 13:27:00;;;;;;;35.97;22.83;;;5.10;99.90;;;;;;5013938;28;20767;-64
2020/12/12 13:32:32;;;;;;;37.83;23.63;;;5.20;99.90;;;;;;5014364;28;20706;-64
2020/12/12 13:35:17;;;;;;;37.70;23.90;;;5.20;99.90;;;;;;5016513;28;20613;-66
2020/12/12 13:38:01;;;;;;;34.97;22.93;;;5.20;99.90;;;;;;5002027;28;20591;-65
2020/12/12 13:40:46;;;;;;;39.20;24.63;;;5.20;99.90;;;;;;5008165;28;20638;-65
2020/12/12 13:43:30;;;;;;;39.70;24.40;;;5.20;99.90;;;;;;5015542;28;20627;-65
2020/12/12 13:46:15;;;;;;;39.67;23.43;;;5.20;99.90;;;;;;5012987;28;20699;-65
2020/12/12 13:49:00;;;;;;;36.93;23.97;;;5.20;99.90;;;;;;5009350;28;20603;-65
2020/12/12 13:51:45;;;;;;;40.47;24.80;;;5.20;99.90;;;;;;5020999;28;21588;-65
2020/12/12 13:54:30;;;;;;;39.60;23.73;;;5.20;99.90;;;;;;5029360;28;20649;-64
2020/12/12 13:57:14;;;;;;;37.20;25.40;;;5.20;99.90;;;;;;5010336;28;20761;-65
2020/12/12 13:59:59;;;;;;;39.97;24.90;;;5.30;99.90;;;;;;5023712;28;20595;-65
2020/12/12 14:02:43;;;;;;;36.33;23.20;;;5.30;99.90;;;;;;5012869;28;20654;-65
2020/12/12 14:05:29;;;;;;;35.47;23.33;;;5.30;99.90;;;;;;5019238;28;20626;-64
2020/12/12 14:08:21;;;;;;;35.83;23.03;;;5.30;99.90;;;;;;5029280;28;21024;-65
2020/12/12 14:23:04;;;;;;;37.53;23.73;;;5.20;99.90;;;;;;5027860;28;20710;-65
2020/12/12 14:28:46;;;;;;;38.80;24.03;;;5.20;99.90;;;;;;5027589;28;20605;-65
2020/12/12 14:31:30;;;;;;;37.53;23.40;;;5.20;99.90;;;;;;5004122;28;20646;-64
2020/12/12 14:34:15;;;;;;;34.33;23.17;;;5.20;99.90;;;;;;5017262;28;21062;-65
2020/12/12 14:36:59;;;;;;;35.53;23.80;;;5.10;99.90;;;;;;5044028;23;20706;-68
2020/12/12 14:39:44;;;;;;;36.70;24.00;;;5.10;99.90;;;;;;5060368;28;20577;-67
2020/12/12 14:42:30;;;;;;;36.17;23.60;;;5.10;99.90;;;;;;5052336;28;20680;-66